createdAt,value
2023-03-22T00:03:42.591Z,94584.00
2023-03-22T00:07:42.724Z,94582.00
2023-03-22T00:11:42.910Z,94574.00
2023-03-22T00:15:43.055Z,94574.00
2023-03-22T00:19:43.193Z,94578.00
2023-03-22T00:23:43.775Z,94576.00
2023-03-22T00:27:43.546Z,94572.00
2023-03-22T00:31:43.699Z,94574.00
2023-03-22T00:35:43.903Z,94572.00
2023-03-22T00:39:45.356Z,94570.00
2023-03-22T00:43:44.278Z,94572.00
2023-03-22T00:47:44.448Z,94570.00
2023-03-22T00:51:44.625Z,94560.00
2023-03-22T00:55:44.853Z,94556.00
2023-03-22T00:59:45.032Z,94555.00
2023-03-22T01:03:45.275Z,94560.00
2023-03-22T01:07:45.414Z,94556.00
2023-03-22T01:11:45.593Z,94556.00
2023-03-22T01:15:45.800Z,94549.00
2023-03-22T01:19:46.340Z,94547.00
2023-03-22T01:23:46.241Z,94549.00
2023-03-22T01:27:46.410Z,94549.00
2023-03-22T01:31:47.349Z,94549.00
2023-03-22T01:35:46.846Z,94549.00
2023-03-22T01:39:47.088Z,94549.00
2023-03-22T01:43:47.274Z,94551.00
2023-03-22T01:47:47.542Z,94551.00
2023-03-22T01:51:47.668Z,94553.00
2023-03-22T01:55:47.697Z,94555.00
2023-03-22T01:59:47.617Z,94555.00
2023-03-22T02:03:49.337Z,94553.00
2023-03-22T02:07:47.869Z,94545.00
2023-03-22T02:11:47.529Z,94547.00
2023-03-22T02:15:47.798Z,94547.00
2023-03-22T02:19:47.628Z,94549.00
2023-03-22T02:23:47.612Z,94551.00
2023-03-22T02:27:47.610Z,94553.00
2023-03-22T02:31:47.495Z,94549.00
2023-03-22T02:35:47.490Z,94558.00
2023-03-22T02:39:47.491Z,94560.00
2023-03-22T02:43:47.505Z,94556.00
2023-03-22T02:47:47.473Z,94560.00
2023-03-22T02:51:50.832Z,94555.00
2023-03-22T02:55:47.838Z,94551.00
2023-03-22T02:59:47.257Z,94551.00
2023-03-22T03:03:47.225Z,94547.00
2023-03-22T03:07:47.233Z,94543.00
2023-03-22T03:11:47.210Z,94543.00
2023-03-22T03:15:47.081Z,94543.00
2023-03-22T03:19:47.270Z,94537.00
2023-03-22T03:23:47.237Z,94535.00
2023-03-22T03:27:47.202Z,94533.00
2023-03-22T03:31:47.145Z,94535.00
2023-03-22T03:35:47.374Z,94539.00
2023-03-22T03:39:47.026Z,94541.00
2023-03-22T03:43:46.991Z,94539.00
2023-03-22T03:47:47.123Z,94539.00
2023-03-22T03:51:46.934Z,94535.00
2023-03-22T03:55:46.914Z,94535.00
2023-03-22T03:59:47.082Z,94529.00
2023-03-22T04:03:47.323Z,94523.00
2023-03-22T04:07:47.322Z,94525.00
2023-03-22T04:11:47.213Z,94527.00
2023-03-22T04:15:47.236Z,94527.00
2023-03-22T04:19:47.213Z,94531.00
2023-03-22T04:23:47.125Z,94527.00
2023-03-22T04:27:47.171Z,94531.00
2023-03-22T04:31:47.067Z,94531.00
2023-03-22T04:35:47.117Z,94529.00
2023-03-22T04:39:46.974Z,94531.00
2023-03-22T04:43:47.068Z,94527.00
2023-03-22T04:47:47.394Z,94527.00
2023-03-22T04:51:47.351Z,94527.00
2023-03-22T04:55:47.602Z,94527.00
2023-03-22T04:59:47.787Z,94533.00
2023-03-22T05:03:48.030Z,94537.00
2023-03-22T05:07:48.226Z,94547.00
2023-03-22T05:11:48.384Z,94547.00
2023-03-22T05:15:48.473Z,94549.00
2023-03-22T05:19:48.471Z,94547.00
2023-03-22T05:23:51.465Z,94549.00
2023-03-22T05:27:48.611Z,94551.00
2023-03-22T05:31:48.667Z,94553.00
2023-03-22T05:35:48.469Z,94551.00
2023-03-22T05:39:48.523Z,94553.00
2023-03-22T05:43:48.397Z,94553.00
2023-03-22T05:47:48.478Z,94555.00
2023-03-22T05:51:48.387Z,94558.00
2023-03-22T05:55:48.324Z,94564.00
2023-03-22T05:59:48.289Z,94568.00
2023-03-22T06:03:48.186Z,94566.00
2023-03-22T06:07:48.525Z,94564.00
2023-03-22T06:11:48.119Z,94566.00
2023-03-22T06:15:48.218Z,94566.00
2023-03-22T06:19:48.052Z,94570.00
2023-03-22T06:23:48.691Z,94568.00
2023-03-22T06:27:48.074Z,94576.00
2023-03-22T06:31:48.104Z,94578.00
2023-03-22T06:35:49.814Z,94570.00
2023-03-22T06:39:48.642Z,94566.00
2023-03-22T06:43:48.089Z,94568.00
2023-03-22T06:47:48.087Z,94560.00
2023-03-22T06:51:48.850Z,94560.00
2023-03-22T06:55:49.078Z,94558.00
2023-03-22T06:59:49.864Z,94556.00
2023-03-22T07:03:49.098Z,94556.00
2023-03-22T07:12:09.913Z,94558.00
2023-03-22T07:16:09.407Z,94558.00
2023-03-22T07:24:27.445Z,94562.00
2023-03-22T07:28:27.578Z,94562.00
2023-03-22T07:32:26.671Z,94555.00
2023-03-22T07:36:26.714Z,94553.00
2023-03-22T07:40:28.760Z,94555.00
2023-03-22T07:44:28.210Z,94551.00
2023-03-22T07:48:27.724Z,94551.00
2023-03-22T07:52:27.630Z,94543.00
2023-03-22T07:56:26.810Z,94537.00
2023-03-22T08:00:29.556Z,94537.00
2023-03-22T08:04:26.865Z,94539.00
2023-03-22T08:08:27.444Z,94533.00
2023-03-22T08:12:27.112Z,94531.00
2023-03-22T08:16:26.929Z,94531.00
2023-03-22T08:20:27.045Z,94533.00
2023-03-22T08:24:26.718Z,94531.00
2023-03-22T08:28:26.665Z,94529.00
2023-03-22T08:32:30.050Z,94527.00
2023-03-22T08:36:26.635Z,94521.00
2023-03-22T08:40:26.701Z,94521.00
2023-03-22T08:44:26.475Z,94517.00
2023-03-22T08:48:26.473Z,94511.00
2023-03-22T08:52:26.424Z,94507.00
2023-03-22T08:56:26.563Z,94492.00
2023-03-22T09:00:30.135Z,94484.00
2023-03-22T09:04:28.122Z,94476.00
2023-03-22T09:08:26.476Z,94470.00
2023-03-22T09:12:26.594Z,94468.00
2023-03-22T09:16:26.762Z,94466.00
2023-03-22T09:20:26.848Z,94460.00
2023-03-22T09:24:27.487Z,94453.00
2023-03-22T09:37:06.711Z,94433.00
2023-03-22T09:41:05.351Z,94425.00
2023-03-22T09:49:24.258Z,94417.00
2023-03-22T09:53:25.973Z,94413.00
2023-03-22T09:57:37.411Z,94404.00
2023-03-22T10:10:02.584Z,94388.00
2023-03-22T10:14:02.398Z,94380.00
2023-03-22T10:18:02.736Z,94364.00
2023-03-22T10:22:02.337Z,94356.00
2023-03-22T10:26:03.096Z,94353.00
2023-03-22T10:30:04.101Z,94347.00
2023-03-22T10:34:02.949Z,94343.00
2023-03-22T10:38:04.027Z,94339.00
2023-03-22T10:42:05.737Z,94335.00
2023-03-22T10:46:02.641Z,94335.00
2023-03-22T10:50:02.729Z,94329.00
2023-03-22T10:54:05.591Z,94325.00
2023-03-22T10:58:02.479Z,94315.00
2023-03-22T11:02:03.610Z,94309.00
2023-03-22T11:06:01.957Z,94302.00
2023-03-22T11:10:01.959Z,94298.00
2023-03-22T11:14:01.970Z,94290.00
2023-03-22T11:18:03.681Z,94284.00
2023-03-22T11:22:01.879Z,94284.00
2023-03-22T11:26:03.679Z,94278.00
2023-03-22T11:30:09.326Z,94268.00
2023-03-22T11:34:01.874Z,94260.00
2023-03-22T11:38:01.817Z,94255.00
2023-03-22T11:42:01.940Z,94247.00
2023-03-22T11:46:01.612Z,94235.00
2023-03-22T11:50:03.060Z,94231.00
2023-03-22T11:54:01.465Z,94225.00
2023-03-22T11:58:01.443Z,94219.00
2023-03-22T12:02:01.500Z,94213.00
2023-03-22T12:06:01.435Z,94209.00
2023-03-22T12:10:01.395Z,94204.00
2023-03-22T12:14:01.322Z,94198.00
2023-03-22T12:18:01.714Z,94188.00
2023-03-22T12:22:01.442Z,94178.00
2023-03-22T12:26:02.575Z,94170.00
2023-03-22T12:30:01.195Z,94168.00
2023-03-22T12:34:01.699Z,94162.00
2023-03-22T12:38:03.715Z,94151.00
2023-03-22T12:42:01.028Z,94145.00
2023-03-22T12:46:00.967Z,94137.00
2023-03-22T12:50:00.910Z,94131.00
2023-03-22T12:54:00.910Z,94127.00
2023-03-22T12:58:00.849Z,94121.00
2023-03-22T13:02:00.898Z,94110.00
2023-03-22T13:06:00.797Z,94104.00
2023-03-22T13:10:00.751Z,94100.00
2023-03-22T13:14:00.717Z,94098.00
2023-03-22T13:18:00.715Z,94092.00
2023-03-22T13:22:00.668Z,94086.00
2023-03-22T13:26:00.612Z,94082.00
2023-03-22T13:30:00.663Z,94076.00
2023-03-22T13:34:00.820Z,94068.00
2023-03-22T13:38:00.912Z,94065.00
2023-03-22T13:42:01.052Z,94061.00
2023-03-22T13:46:01.365Z,94049.00
2023-03-22T13:50:01.374Z,94043.00
2023-03-22T13:54:01.578Z,94033.00
2023-03-22T13:58:01.683Z,94033.00
2023-03-22T14:02:01.842Z,94031.00
2023-03-22T14:06:02.081Z,94029.00
2023-03-22T14:10:02.227Z,94025.00
2023-03-22T14:14:02.338Z,94021.00
2023-03-22T14:18:02.630Z,94013.00
2023-03-22T14:47:04.477Z,93992.00
2023-03-22T14:51:04.452Z,93988.00
2023-03-22T14:55:04.372Z,93988.00
2023-03-22T14:59:04.445Z,93986.00
2023-03-22T15:03:05.215Z,93980.00
2023-03-22T15:07:04.245Z,93972.00
2023-03-22T15:11:04.236Z,93970.00
2023-03-22T15:15:04.505Z,93963.00
2023-03-22T15:19:04.496Z,93964.00
2023-03-22T15:23:06.559Z,93963.00
2023-03-22T15:27:04.539Z,93966.00
2023-03-22T15:31:06.638Z,93966.00
2023-03-22T15:35:04.475Z,93964.00
2023-03-22T15:39:04.527Z,93963.00
2023-03-22T15:43:04.509Z,93959.00
2023-03-22T15:47:04.544Z,93963.00
2023-03-22T15:51:04.714Z,93966.00
2023-03-22T15:55:04.624Z,93966.00
2023-03-22T15:59:04.758Z,93970.00
2023-03-22T16:03:04.829Z,93974.00
2023-03-22T16:07:04.919Z,93978.00
2023-03-22T16:11:05.016Z,93982.00
2023-03-22T16:15:05.183Z,93980.00
2023-03-22T16:19:05.296Z,93990.00
2023-03-22T16:23:05.374Z,93998.00
2023-03-22T16:27:05.508Z,94000.00
2023-03-22T16:31:05.938Z,93996.00
2023-03-22T16:35:05.798Z,94002.00
2023-03-22T16:39:06.057Z,94002.00
2023-03-22T16:43:06.257Z,94010.00
2023-03-22T16:47:06.393Z,94011.00
2023-03-22T16:51:06.596Z,94017.00
2023-03-22T16:55:06.775Z,94021.00
2023-03-22T16:59:06.953Z,94027.00
2023-03-22T17:03:07.227Z,94033.00
2023-03-22T17:07:07.184Z,94043.00
2023-03-22T17:11:08.171Z,94047.00
2023-03-22T17:15:07.059Z,94051.00
2023-03-22T17:19:07.032Z,94051.00
2023-03-22T17:23:07.032Z,94059.00
2023-03-22T17:27:06.975Z,94065.00
2023-03-22T17:31:07.278Z,94074.00
2023-03-22T17:35:06.866Z,94076.00
2023-03-22T17:39:23.142Z,94084.00
2023-03-22T17:43:07.840Z,94084.00
2023-03-22T17:47:34.733Z,94096.00
2023-03-22T17:51:07.786Z,94102.00
2023-03-22T17:59:06.711Z,94125.00
2023-03-22T18:03:06.704Z,94135.00
2023-03-22T18:07:06.638Z,94137.00
2023-03-22T18:11:06.682Z,94149.00
2023-03-22T18:15:06.585Z,94153.00
2023-03-22T18:19:06.559Z,94162.00
2023-03-22T18:23:06.472Z,94168.00
2023-03-22T18:27:11.215Z,94176.00
2023-03-22T18:31:07.496Z,94188.00
2023-03-22T18:35:06.388Z,94190.00
2023-03-22T18:43:07.319Z,94198.00
2023-03-22T18:47:07.253Z,94209.00
2023-03-22T18:51:11.556Z,94213.00
2023-03-22T18:55:21.709Z,94215.00
2023-03-22T18:59:07.195Z,94227.00
2023-03-22T19:07:06.265Z,94219.00
2023-03-22T19:11:06.295Z,94221.00
2023-03-22T19:19:07.006Z,94229.00
2023-03-22T19:23:06.014Z,94233.00
2023-03-22T19:31:06.911Z,94233.00
2023-03-22T19:35:05.877Z,94233.00
2023-03-22T19:39:11.495Z,94239.00
2023-03-22T19:43:06.835Z,94235.00
2023-03-22T19:47:05.842Z,94231.00
2023-03-22T19:51:05.762Z,94233.00
2023-03-22T19:55:05.783Z,94231.00
2023-03-22T19:59:11.521Z,94227.00
2023-03-22T20:03:06.848Z,94235.00
2023-03-22T20:07:05.805Z,94237.00
2023-03-22T20:11:06.751Z,94239.00
2023-03-22T20:15:05.855Z,94241.00
2023-03-22T20:19:05.978Z,94245.00
2023-03-22T20:23:06.417Z,94253.00
2023-03-22T20:27:06.442Z,94260.00
2023-03-22T20:31:06.260Z,94260.00
2023-03-22T20:35:06.332Z,94264.00
2023-03-22T20:39:06.459Z,94268.00
2023-03-22T20:43:06.579Z,94270.00
2023-03-22T20:47:06.696Z,94270.00
2023-03-22T20:51:06.823Z,94272.00
2023-03-22T20:55:07.002Z,94276.00
2023-03-22T20:59:07.177Z,94280.00
2023-03-22T21:03:07.309Z,94282.00
2023-03-22T21:07:07.431Z,94286.00
2023-03-22T21:11:07.657Z,94290.00
2023-03-22T21:15:07.782Z,94296.00
2023-03-22T21:19:07.972Z,94302.00
2023-03-22T21:23:08.193Z,94300.00
2023-03-22T21:27:08.375Z,94306.00
2023-03-22T21:31:08.646Z,94309.00
2023-03-22T21:35:08.774Z,94313.00
2023-03-22T21:39:08.979Z,94315.00
2023-03-22T21:43:09.071Z,94313.00
2023-03-22T21:47:09.341Z,94315.00
2023-03-22T21:51:09.488Z,94319.00
2023-03-22T21:55:09.696Z,94319.00
2023-03-22T21:59:09.931Z,94319.00
2023-03-22T22:03:10.141Z,94319.00
2023-03-22T22:07:10.326Z,94321.00
2023-03-22T22:11:10.562Z,94325.00
2023-03-22T22:15:10.777Z,94329.00
2023-03-22T22:19:10.969Z,94329.00
2023-03-22T22:23:10.942Z,94333.00
2023-03-22T22:27:10.908Z,94333.00
2023-03-22T22:31:10.888Z,94337.00
2023-03-22T22:35:10.854Z,94337.00
2023-03-22T22:39:10.832Z,94337.00
2023-03-22T22:43:10.800Z,94335.00
2023-03-22T22:47:10.770Z,94331.00
2023-03-22T22:51:11.359Z,94329.00
2023-03-22T22:55:10.672Z,94329.00
2023-03-22T22:59:11.799Z,94327.00
2023-03-22T23:03:10.827Z,94321.00
2023-03-22T23:07:10.732Z,94323.00
2023-03-22T23:11:10.704Z,94321.00
2023-03-22T23:15:15.288Z,94319.00
2023-03-22T23:19:11.625Z,94317.00
2023-03-22T23:23:10.608Z,94315.00
2023-03-22T23:27:10.696Z,94321.00
2023-03-22T23:31:10.858Z,94321.00
2023-03-22T23:35:11.897Z,94319.00
2023-03-22T23:39:11.222Z,94321.00
2023-03-22T23:43:11.388Z,94325.00
2023-03-22T23:47:11.548Z,94325.00
2023-03-22T23:51:11.638Z,94327.00
2023-03-22T23:55:11.713Z,94333.00
2023-03-22T23:59:11.887Z,94331.00
